CMA-CGM Fort Saint Pierre — FQFM — position and weather

sailwx.info

Track history (hours):
 
Tides and Currents Weather Stations Pressure Air Temp Water Temp Dewpoint Dewpoint Depression Visibility Wind Speed Wind Dir Waves Ship Positions

CMA-CGM Fort Saint Pierre

Last reported at 2015-Sep-01 19:33 UTC. Time now 2015-Sep-01 20:19 UTC.
Position N 38°47' W 029°08'.

Length 197 m; beam 30 m.

Type: Ship (hazmat cat A). MMSI: 226328000.

Date/timePositionNaut miles runAvg speedWind from/ knotsBaromVisibWave heightAir tempDewpointWater temp
2015-Sep-01 19:33N 38°47' W 029°08'1717.5
2015-Sep-01 18:33N 38°57' W 028°49'1717.3
2015-Sep-01 17:33N 39°06' W 028°30'1717.2
2015-Sep-01 16:33N 39°15' W 028°11'1817.5
2015-Sep-01 15:33N 39°24' W 027°52'  
2015-Aug-30 04:11N 46°31' W 005°20'1117.6
2015-Aug-30 03:33N 46°33' W 005°05'1717.2
2015-Aug-30 02:33N 46°38' W 004°40'1717.4
2015-Aug-30 01:33N 46°43' W 004°16'1717.3
2015-Aug-30 00:34N 46°48' W 003°52'1717.4
2015-Aug-29 23:33N 46°52' W 003°27'1817.4
2015-Aug-29 22:33N 46°57' W 003°03'1817.6
2015-Aug-29 21:33N 47°01' W 002°38'1515.0
2015-Aug-29 20:33N 47°09' W 002°19'1110.7
2015-Aug-29 19:32N 47°18' W 002°09'0 0.0
2015-Aug-29 18:32N 47°18' W 002°09'0 0.0
2015-Aug-29 17:32N 47°18' W 002°09'0 0.0
2015-Aug-29 16:32N 47°18' W 002°09'0 0.0
2015-Aug-29 15:32N 47°18' W 002°09'0 0.0
2015-Aug-29 13:32N 47°18' W 002°09'0 0.0
2015-Aug-29 12:32N 47°18' W 002°09'0 0.0
2015-Aug-29 11:33N 47°18' W 002°09'7 7.0
2015-Aug-29 10:33N 47°13' W 002°16'1110.6
2015-Aug-29 09:33N 47°04' W 002°26'1514.0
2015-Aug-29 08:31N 47°01' W 002°47'1414.9
2015-Aug-29 07:33N 47°07' W 003°06'1514.7
2015-Aug-29 06:33N 47°13' W 003°26'1515.0
2015-Aug-29 05:33N 47°21' W 003°45'1818.3
2015-Aug-29 04:33N 47°31' W 004°07'4019.5
2015-Aug-29 02:31N 47°53' W 004°56'1818.8
2015-Aug-29 01:33N 48°03' W 005°19'3718.6
2015-Aug-28 23:33N 48°31' W 005°55'16918.3
2015-Aug-28 14:21N 50°03' W 002°19'6322.6
2015-Aug-28 11:34N 49°42' W 000°47'2121.3
2015-Aug-28 10:34N 49°35' W 000°16'1515.4
2015-Aug-28 09:34N 49°28' E 000°06'3 3.1
2015-Aug-28 08:33N 49°27' E 000°10'0 0.0
2015-Aug-28 07:33N 49°27' E 000°10'0 0.0
2015-Aug-28 06:33N 49°27' E 000°10'0 0.0
2015-Aug-28 05:33N 49°27' E 000°10'0 0.0
2015-Aug-28 04:33N 49°27' E 000°10'0 0.0
2015-Aug-28 03:33N 49°27' E 000°10'0 0.0
2015-Aug-28 02:33N 49°27' E 000°10'0 0.0
2015-Aug-28 01:33N 49°27' E 000°10'0 0.0
2015-Aug-28 00:33N 49°27' E 000°10'0 0.0
2015-Aug-27 23:33N 49°27' E 000°10'0 0.0
2015-Aug-27 22:33N 49°27' E 000°10'0 0.0
2015-Aug-27 21:33N 49°27' E 000°10'0 0.0
2015-Aug-27 20:33N 49°27' E 000°10'0 0.0
2015-Aug-27 19:33N 49°27' E 000°10'0 0.0
2015-Aug-27 18:33N 49°27' E 000°10'0 0.0
2015-Aug-27 17:33N 49°27' E 000°10'0 0.0
2015-Aug-27 16:33N 49°27' E 000°10'0 0.0
2015-Aug-27 15:33N 49°27' E 000°10'0 0.0
2015-Aug-27 14:33N 49°27' E 000°10'0 0.0
2015-Aug-27 13:33N 49°27' E 000°10'0 0.0
2015-Aug-27 12:33N 49°27' E 000°10'0 0.0
2015-Aug-27 11:33N 49°27' E 000°10'0 0.0
2015-Aug-27 10:33N 49°27' E 000°10'0 0.0
2015-Aug-27 09:33N 49°27' E 000°10'0 0.3
2015-Aug-27 08:34N 49°27' E 000°10'8 8.0
2015-Aug-27 07:33N 49°29' W 000°03'1010.3
2015-Aug-27 06:33N 49°26' E 000°13'1010.0
2015-Aug-27 05:33N 49°28' E 000°28'7 6.9
2015-Aug-27 04:33N 49°26' E 000°38'6 6.4
2015-Aug-27 03:33N 49°29' E 000°47'3 3.1
2015-Aug-27 02:27N 49°28' E 000°52'2 0.1
2015-Aug-26 05:33N 49°28' E 000°49'7 7.0
2015-Aug-26 04:34N 49°27' E 000°38'1111.2
2015-Aug-26 03:33N 49°26' E 000°21'1413.5
2015-Aug-26 02:33N 49°28' E 000°01'8 7.8
2015-Aug-26 01:34N 49°30' W 000°11'9 9.4
2015-Aug-26 00:33N 49°40' W 000°12'1111.3
2015-Aug-25 23:33N 49°51' W 000°12'3911.7
2015-Aug-25 20:16N 50°28' E 000°05'1013.7
2015-Aug-25 19:33N 50°31' E 000°20'1313.5
2015-Aug-25 18:33N 50°36' E 000°39'1313.5
2015-Aug-25 17:33N 50°43' E 000°57'1413.4
2015-Aug-25 16:33N 50°51' E 001°14'1313.4
2015-Aug-25 15:34N 51°01' E 001°28'1212.3
2015-Aug-25 14:34N 51°02' E 001°48'1414.4
2015-Aug-25 13:33N 51°01' E 002°11'0 0.3
2015-Aug-25 12:31N 51°01' E 002°11'0 0.0
2015-Aug-25 11:28N 51°01' E 002°11'0 0.0
2015-Aug-25 10:31N 51°01' E 002°11'0 0.0
2015-Aug-25 09:31N 51°01' E 002°11'0 0.0
2015-Aug-25 08:31N 51°01' E 002°11'0 0.0
2015-Aug-25 07:28N 51°01' E 002°11'0 0.0
2015-Aug-25 06:25N 51°01' E 002°11'0 0.0
2015-Aug-25 05:25N 51°01' E 002°11'0 0.0
2015-Aug-25 04:31N 51°01' E 002°11'0 0.0
2015-Aug-25 03:31N 51°01' E 002°11'0 0.0
2015-Aug-25 02:31N 51°01' E 002°11'0 0.0
2015-Aug-25 01:28N 51°01' E 002°11'0 0.0
2015-Aug-25 00:31N 51°01' E 002°11'0 0.0
2015-Aug-24 23:31N 51°01' E 002°11'0 0.0
2015-Aug-24 22:31N 51°01' E 002°11'0 0.0
2015-Aug-24 21:31N 51°01' E 002°11'0 0.0
2015-Aug-24 20:28N 51°01' E 002°11'0 0.0
2015-Aug-24 19:22N 51°01' E 002°11'0 0.0
2015-Aug-24 18:28N 51°01' E 002°11'0 0.0
2015-Aug-24 17:31N 51°01' E 002°11'0 0.0
2015-Aug-24 16:22N 51°01' E 002°11'0 0.0
2015-Aug-24 15:31N 51°01' E 002°11'0 0.0
2015-Aug-24 14:31N 51°01' E 002°11'0 0.0
2015-Aug-24 13:31N 51°01' E 002°11'0 0.0
2015-Aug-24 12:28N 51°01' E 002°11'0 0.0
2015-Aug-24 11:25N 51°01' E 002°11'0 0.0
2015-Aug-24 10:31N 51°01' E 002°11'0 0.0
2015-Aug-24 09:19N 51°01' E 002°11'0 0.0
2015-Aug-24 08:31N 51°01' E 002°11'0 0.0
2015-Aug-24 07:28N 51°01' E 002°11'0 0.0
2015-Aug-24 06:25N 51°01' E 002°11'0 0.0
2015-Aug-24 05:31N 51°01' E 002°11'0 0.0
2015-Aug-24 04:28N 51°01' E 002°11'0 0.0
2015-Aug-24 03:31N 51°01' E 002°11'0 0.3
2015-Aug-24 02:33N 51°01' E 002°11'1211.5
2015-Aug-24 01:33N 51°02' E 001°52'8 8.5
2015-Aug-24 00:33N 50°60' E 001°39'1413.3
2015-Aug-23 23:32N 50°49' E 001°27'1413.9
2015-Aug-23 22:31N 50°37' E 001°15'  
Track history (hours):
 
Tides and Currents Weather Stations Pressure Air Temp Water Temp Dewpoint Dewpoint Depression Visibility Wind Speed Wind Dir Waves Ship Positions

CMA-CGM Fort Saint Pierre

Last reported at 2015-Sep-01 19:33 UTC. Time now 2015-Sep-01 20:19 UTC.
Position N 38°47' W 029°08'.

Length 197 m; beam 30 m.

Type: Ship (hazmat cat A). MMSI: 226328000.

Date/timePositionNaut miles runAvg speedWind from/ knotsBaromVisibWave heightAir tempDewpointWater temp
2015-Sep-01 19:33N 38°47' W 029°08'1717.5
2015-Sep-01 18:33N 38°57' W 028°49'1717.3
2015-Sep-01 17:33N 39°06' W 028°30'1717.2
2015-Sep-01 16:33N 39°15' W 028°11'1817.5
2015-Sep-01 15:33N 39°24' W 027°52'  
2015-Aug-30 04:11N 46°31' W 005°20'1117.6
2015-Aug-30 03:33N 46°33' W 005°05'1717.2
2015-Aug-30 02:33N 46°38' W 004°40'1717.4
2015-Aug-30 01:33N 46°43' W 004°16'1717.3
2015-Aug-30 00:34N 46°48' W 003°52'1717.4
2015-Aug-29 23:33N 46°52' W 003°27'1817.4
2015-Aug-29 22:33N 46°57' W 003°03'1817.6
2015-Aug-29 21:33N 47°01' W 002°38'1515.0
2015-Aug-29 20:33N 47°09' W 002°19'1110.7
2015-Aug-29 19:32N 47°18' W 002°09'0 0.0
2015-Aug-29 18:32N 47°18' W 002°09'0 0.0
2015-Aug-29 17:32N 47°18' W 002°09'0 0.0
2015-Aug-29 16:32N 47°18' W 002°09'0 0.0
2015-Aug-29 15:32N 47°18' W 002°09'0 0.0
2015-Aug-29 13:32N 47°18' W 002°09'0 0.0
2015-Aug-29 12:32N 47°18' W 002°09'0 0.0
2015-Aug-29 11:33N 47°18' W 002°09'7 7.0
2015-Aug-29 10:33N 47°13' W 002°16'1110.6
2015-Aug-29 09:33N 47°04' W 002°26'1514.0
2015-Aug-29 08:31N 47°01' W 002°47'1414.9
2015-Aug-29 07:33N 47°07' W 003°06'1514.7
2015-Aug-29 06:33N 47°13' W 003°26'1515.0
2015-Aug-29 05:33N 47°21' W 003°45'1818.3
2015-Aug-29 04:33N 47°31' W 004°07'4019.5
2015-Aug-29 02:31N 47°53' W 004°56'1818.8
2015-Aug-29 01:33N 48°03' W 005°19'3718.6
2015-Aug-28 23:33N 48°31' W 005°55'16918.3
2015-Aug-28 14:21N 50°03' W 002°19'6322.6
2015-Aug-28 11:34N 49°42' W 000°47'2121.3
2015-Aug-28 10:34N 49°35' W 000°16'1515.4
2015-Aug-28 09:34N 49°28' E 000°06'3 3.1
2015-Aug-28 08:33N 49°27' E 000°10'0 0.0
2015-Aug-28 07:33N 49°27' E 000°10'0 0.0
2015-Aug-28 06:33N 49°27' E 000°10'0 0.0
2015-Aug-28 05:33N 49°27' E 000°10'0 0.0
2015-Aug-28 04:33N 49°27' E 000°10'0 0.0
2015-Aug-28 03:33N 49°27' E 000°10'0 0.0
2015-Aug-28 02:33N 49°27' E 000°10'0 0.0
2015-Aug-28 01:33N 49°27' E 000°10'0 0.0
2015-Aug-28 00:33N 49°27' E 000°10'0 0.0
2015-Aug-27 23:33N 49°27' E 000°10'0 0.0
2015-Aug-27 22:33N 49°27' E 000°10'0 0.0
2015-Aug-27 21:33N 49°27' E 000°10'0 0.0
2015-Aug-27 20:33N 49°27' E 000°10'0 0.0
2015-Aug-27 19:33N 49°27' E 000°10'0 0.0
2015-Aug-27 18:33N 49°27' E 000°10'0 0.0
2015-Aug-27 17:33N 49°27' E 000°10'0 0.0
2015-Aug-27 16:33N 49°27' E 000°10'0 0.0
2015-Aug-27 15:33N 49°27' E 000°10'0 0.0
2015-Aug-27 14:33N 49°27' E 000°10'0 0.0
2015-Aug-27 13:33N 49°27' E 000°10'0 0.0
2015-Aug-27 12:33N 49°27' E 000°10'0 0.0
2015-Aug-27 11:33N 49°27' E 000°10'0 0.0
2015-Aug-27 10:33N 49°27' E 000°10'0 0.0
2015-Aug-27 09:33N 49°27' E 000°10'0 0.3
2015-Aug-27 08:34N 49°27' E 000°10'8 8.0
2015-Aug-27 07:33N 49°29' W 000°03'1010.3
2015-Aug-27 06:33N 49°26' E 000°13'1010.0
2015-Aug-27 05:33N 49°28' E 000°28'7 6.9
2015-Aug-27 04:33N 49°26' E 000°38'6 6.4
2015-Aug-27 03:33N 49°29' E 000°47'3 3.1
2015-Aug-27 02:27N 49°28' E 000°52'2 0.1
2015-Aug-26 05:33N 49°28' E 000°49'7 7.0
2015-Aug-26 04:34N 49°27' E 000°38'1111.2
2015-Aug-26 03:33N 49°26' E 000°21'1413.5
2015-Aug-26 02:33N 49°28' E 000°01'8 7.8
2015-Aug-26 01:34N 49°30' W 000°11'9 9.4
2015-Aug-26 00:33N 49°40' W 000°12'1111.3
2015-Aug-25 23:33N 49°51' W 000°12'3911.7
2015-Aug-25 20:16N 50°28' E 000°05'1013.7
2015-Aug-25 19:33N 50°31' E 000°20'1313.5
2015-Aug-25 18:33N 50°36' E 000°39'1313.5
2015-Aug-25 17:33N 50°43' E 000°57'1413.4
2015-Aug-25 16:33N 50°51' E 001°14'1313.4
2015-Aug-25 15:34N 51°01' E 001°28'1212.3
2015-Aug-25 14:34N 51°02' E 001°48'1414.4
2015-Aug-25 13:33N 51°01' E 002°11'0 0.3
2015-Aug-25 12:31N 51°01' E 002°11'0 0.0
2015-Aug-25 11:28N 51°01' E 002°11'0 0.0
2015-Aug-25 10:31N 51°01' E 002°11'0 0.0
2015-Aug-25 09:31N 51°01' E 002°11'0 0.0
2015-Aug-25 08:31N 51°01' E 002°11'0 0.0
2015-Aug-25 07:28N 51°01' E 002°11'0 0.0
2015-Aug-25 06:25N 51°01' E 002°11'0 0.0
2015-Aug-25 05:25N 51°01' E 002°11'0 0.0
2015-Aug-25 04:31N 51°01' E 002°11'0 0.0
2015-Aug-25 03:31N 51°01' E 002°11'0 0.0
2015-Aug-25 02:31N 51°01' E 002°11'0 0.0
2015-Aug-25 01:28N 51°01' E 002°11'0 0.0
2015-Aug-25 00:31N 51°01' E 002°11'0 0.0
2015-Aug-24 23:31N 51°01' E 002°11'0 0.0
2015-Aug-24 22:31N 51°01' E 002°11'0 0.0
2015-Aug-24 21:31N 51°01' E 002°11'0 0.0
2015-Aug-24 20:28N 51°01' E 002°11'0 0.0
2015-Aug-24 19:22N 51°01' E 002°11'0 0.0
2015-Aug-24 18:28N 51°01' E 002°11'0 0.0
2015-Aug-24 17:31N 51°01' E 002°11'0 0.0
2015-Aug-24 16:22N 51°01' E 002°11'0 0.0
2015-Aug-24 15:31N 51°01' E 002°11'0 0.0
2015-Aug-24 14:31N 51°01' E 002°11'0 0.0
2015-Aug-24 13:31N 51°01' E 002°11'0 0.0
2015-Aug-24 12:28N 51°01' E 002°11'0 0.0
2015-Aug-24 11:25N 51°01' E 002°11'0 0.0
2015-Aug-24 10:31N 51°01' E 002°11'0 0.0
2015-Aug-24 09:19N 51°01' E 002°11'0 0.0
2015-Aug-24 08:31N 51°01' E 002°11'0 0.0
2015-Aug-24 07:28N 51°01' E 002°11'0 0.0
2015-Aug-24 06:25N 51°01' E 002°11'0 0.0
2015-Aug-24 05:31N 51°01' E 002°11'0 0.0
2015-Aug-24 04:28N 51°01' E 002°11'0 0.0
2015-Aug-24 03:31N 51°01' E 002°11'0 0.3
2015-Aug-24 02:33N 51°01' E 002°11'1211.5
2015-Aug-24 01:33N 51°02' E 001°52'8 8.5
2015-Aug-24 00:33N 50°60' E 001°39'1413.3
2015-Aug-23 23:32N 50°49' E 001°27'1413.9
2015-Aug-23 22:31N 50°37' E 001°15'  

Dump ship's entire track history